createdAt,value
2023-05-01T00:03:55.946Z,15
2023-05-01T00:09:12.082Z,12
2023-05-01T00:14:28.477Z,12
2023-05-01T00:19:44.861Z,14
2023-05-01T00:25:01.282Z,13
2023-05-01T00:30:17.670Z,13
2023-05-01T00:35:34.033Z,15
2023-05-01T00:40:50.410Z,13
2023-05-01T00:46:06.820Z,15
2023-05-01T00:51:23.155Z,14
2023-05-01T00:56:39.839Z,15
2023-05-01T01:01:56.758Z,14
2023-05-01T01:07:12.624Z,15
2023-05-01T01:12:28.971Z,13
2023-05-01T01:17:45.439Z,12
2023-05-01T01:23:01.689Z,13
2023-05-01T01:28:18.067Z,13
2023-05-01T01:33:34.413Z,15
2023-05-01T01:38:50.794Z,12
2023-05-01T01:44:07.149Z,13
2023-05-01T01:49:23.548Z,12
2023-05-01T01:54:39.867Z,11
2023-05-01T01:59:56.557Z,17
2023-05-01T02:05:12.596Z,13
2023-05-01T02:10:28.976Z,14
2023-05-01T02:15:45.376Z,12
2023-05-01T02:21:01.734Z,12
2023-05-01T02:26:18.089Z,15
2023-05-01T02:31:34.503Z,14
2023-05-01T02:36:50.816Z,11
2023-05-01T02:42:07.253Z,11
2023-05-01T02:47:23.614Z,12
2023-05-01T02:52:39.927Z,10
2023-05-01T02:57:56.301Z,11
2023-05-01T03:03:12.702Z,11
2023-05-01T03:08:29.041Z,12
2023-05-01T03:13:45.412Z,11
2023-05-01T03:19:01.807Z,15
2023-05-01T03:24:18.128Z,14
2023-05-01T03:29:34.512Z,14
2023-05-01T03:34:50.947Z,12
2023-05-01T03:40:07.240Z,14
2023-05-01T03:45:23.610Z,12
2023-05-01T03:50:39.979Z,14
2023-05-01T03:55:56.341Z,12
2023-05-01T04:01:12.723Z,12
2023-05-01T04:06:29.138Z,8
2023-05-01T04:11:45.443Z,9
2023-05-01T04:17:01.809Z,11
2023-05-01T04:22:18.183Z,11
2023-05-01T04:27:34.536Z,11
2023-05-01T04:32:50.937Z,10
2023-05-01T04:38:07.286Z,13
2023-05-01T04:43:23.644Z,15
2023-05-01T04:48:40.099Z,14
2023-05-01T04:53:56.383Z,12
2023-05-01T04:59:12.741Z,10
2023-05-01T05:04:29.662Z,12
2023-05-01T05:09:46.040Z,11
2023-05-01T05:15:02.404Z,10
2023-05-01T05:20:18.755Z,12
2023-05-01T05:25:35.117Z,7
2023-05-01T05:30:51.513Z,7
2023-05-01T05:36:07.840Z,10
2023-05-01T05:41:24.205Z,8
2023-05-01T05:46:40.745Z,6
2023-05-01T05:51:57.204Z,9
2023-05-01T05:57:13.508Z,9
2023-05-01T06:02:29.900Z,10
2023-05-01T06:07:46.178Z,10
2023-05-01T06:13:11.249Z,9
2023-05-01T06:18:18.957Z,9
2023-05-01T06:23:35.271Z,10
2023-05-01T06:28:51.875Z,12
2023-05-01T06:34:08.230Z,10
2023-05-01T06:39:24.584Z,8
2023-05-01T06:44:40.923Z,11
2023-05-01T06:49:57.702Z,9
2023-05-01T06:55:13.637Z,8
2023-05-01T07:00:30.002Z,8
2023-05-01T07:05:46.314Z,7
2023-05-01T07:11:02.692Z,9
2023-05-01T07:16:19.124Z,7
2023-05-01T07:21:35.391Z,7
2023-05-01T07:26:51.727Z,6
2023-05-01T07:32:08.097Z,7
2023-05-01T07:37:24.417Z,7
2023-05-01T07:42:40.754Z,5
2023-05-01T07:47:57.216Z,5
2023-05-01T07:53:13.437Z,6
2023-05-01T07:58:29.793Z,5
2023-05-01T08:03:48.082Z,6
2023-05-01T08:09:02.480Z,6
2023-05-01T08:14:18.847Z,10
2023-05-01T08:19:35.203Z,5
2023-05-01T08:24:51.539Z,6
2023-05-01T08:30:07.897Z,4
2023-05-01T08:35:24.229Z,5
2023-05-01T08:40:40.651Z,6
2023-05-01T08:45:56.905Z,5
2023-05-01T08:51:13.258Z,6
2023-05-01T08:56:29.600Z,5
2023-05-01T09:01:46.027Z,4
2023-05-01T09:07:02.293Z,4
2023-05-01T09:12:18.634Z,6
2023-05-01T09:17:35.004Z,5
2023-05-01T09:22:51.350Z,8
2023-05-01T09:28:07.684Z,7
2023-05-01T09:33:24.182Z,6
2023-05-01T09:38:40.343Z,7
2023-05-01T09:43:56.691Z,5
2023-05-01T09:49:13.034Z,6
2023-05-01T09:54:29.355Z,6
2023-05-01T09:59:45.702Z,6
2023-05-01T10:05:02.024Z,6
2023-05-01T10:10:18.569Z,6
2023-05-01T10:15:34.701Z,8
2023-05-01T10:20:51.048Z,7
2023-05-01T10:26:07.375Z,6
2023-05-01T10:31:23.803Z,6
2023-05-01T10:36:40.089Z,7
2023-05-01T10:41:56.413Z,7
2023-05-01T10:47:12.778Z,8
2023-05-01T10:52:29.083Z,6
2023-05-01T10:57:45.436Z,7
2023-05-01T11:03:01.841Z,7
2023-05-01T11:08:18.126Z,8
2023-05-01T11:13:34.442Z,8
2023-05-01T11:18:50.798Z,6
2023-05-01T11:24:07.109Z,7
2023-05-01T11:29:23.456Z,5
2023-05-01T11:34:39.789Z,6
2023-05-01T11:39:56.133Z,6
2023-05-01T11:45:12.720Z,6
2023-05-01T11:50:29.058Z,7
2023-05-01T11:55:45.406Z,6
2023-05-01T12:01:01.754Z,8
2023-05-01T12:06:18.113Z,7
2023-05-01T12:11:34.436Z,8
2023-05-01T12:16:50.805Z,8
2023-05-01T12:22:07.122Z,8
2023-05-01T12:27:23.477Z,7
2023-05-01T12:32:39.836Z,6
2023-05-01T12:37:56.182Z,7
2023-05-01T12:43:12.509Z,8
2023-05-01T12:48:28.861Z,6
2023-05-01T12:53:45.181Z,7
2023-05-01T12:59:01.546Z,8
2023-05-01T13:04:18.244Z,8
2023-05-01T13:09:34.573Z,9
2023-05-01T13:14:50.896Z,8
2023-05-01T13:20:07.338Z,10
2023-05-01T13:25:23.600Z,10
2023-05-01T13:30:39.951Z,10
2023-05-01T13:35:56.294Z,8
2023-05-01T13:41:12.651Z,10
2023-05-01T13:46:29.109Z,10
2023-05-01T13:51:56.941Z,9
2023-05-01T13:57:13.335Z,10
2023-05-01T14:02:30.020Z,11
2023-05-01T14:07:46.034Z,10
2023-05-01T14:13:02.381Z,7
2023-05-01T14:18:18.750Z,5
2023-05-01T14:23:35.084Z,15
2023-05-01T14:28:51.465Z,14
2023-05-01T14:34:07.799Z,16
2023-05-01T14:39:24.177Z,10
2023-05-01T14:44:40.515Z,7
2023-05-01T14:49:56.891Z,19
2023-05-01T14:55:13.251Z,10
2023-05-01T15:00:29.611Z,12
2023-05-01T15:05:45.956Z,12
2023-05-01T15:11:02.334Z,12
2023-05-01T15:16:18.763Z,14
2023-05-01T15:21:35.056Z,18
2023-05-01T15:26:51.391Z,16
2023-05-01T15:32:12.300Z,16
2023-05-01T15:37:24.142Z,17
2023-05-01T15:42:40.513Z,18
2023-05-01T15:47:56.901Z,19
2023-05-01T15:53:13.251Z,19
2023-05-01T15:58:29.660Z,22
2023-05-01T16:03:46.215Z,19
2023-05-01T16:09:02.425Z,21
2023-05-01T16:14:18.761Z,18
2023-05-01T16:19:35.203Z,17
2023-05-01T16:24:51.514Z,20
2023-05-01T16:30:07.902Z,19
2023-05-01T16:35:24.270Z,16
2023-05-01T16:40:40.656Z,20
2023-05-01T16:45:57.045Z,17
2023-05-01T16:51:13.411Z,17
2023-05-01T16:56:29.776Z,18
2023-05-01T17:01:46.213Z,16
2023-05-01T17:07:02.557Z,18
2023-05-01T17:12:18.933Z,19
2023-05-01T17:17:35.331Z,21
2023-05-01T17:22:51.689Z,18
2023-05-01T17:28:08.086Z,19
2023-05-01T17:33:24.474Z,20
2023-05-01T17:38:40.838Z,15
2023-05-01T17:43:57.209Z,17
2023-05-01T17:49:13.565Z,20
2023-05-01T17:54:29.922Z,19
2023-05-01T17:59:46.272Z,20
2023-05-01T18:05:02.632Z,20
2023-05-01T18:10:18.993Z,19
2023-05-01T18:15:35.356Z,16
2023-05-01T18:20:51.750Z,19
2023-05-01T18:26:08.158Z,26
2023-05-01T18:31:24.638Z,25
2023-05-01T18:36:40.924Z,25
2023-05-01T18:41:57.295Z,21
2023-05-01T18:47:13.686Z,30
2023-05-01T18:52:30.060Z,23
2023-05-01T18:57:46.997Z,23
2023-05-01T19:03:03.425Z,22
2023-05-01T19:08:19.776Z,21
2023-05-01T19:13:36.170Z,22
2023-05-01T19:18:52.557Z,25
2023-05-01T19:24:08.924Z,25
2023-05-01T19:29:25.324Z,24
2023-05-01T19:34:41.692Z,18
2023-05-01T19:39:58.396Z,23
2023-05-01T19:45:16.220Z,24
2023-05-01T19:50:32.861Z,17
2023-05-01T19:55:48.199Z,19
2023-05-01T20:01:03.635Z,20
2023-05-01T20:06:20.060Z,23
2023-05-01T20:11:36.345Z,26
2023-05-01T20:16:52.534Z,26
2023-05-01T20:22:08.843Z,23
2023-05-01T20:27:25.258Z,24
2023-05-01T20:32:41.645Z,25
2023-05-01T20:37:58.013Z,21
2023-05-01T20:43:14.380Z,21
2023-05-01T20:48:30.774Z,21
2023-05-01T20:53:47.155Z,20
2023-05-01T20:59:03.537Z,18
2023-05-01T21:04:20.173Z,16
2023-05-01T21:09:36.694Z,15
2023-05-01T21:14:52.850Z,17
2023-05-01T21:20:09.250Z,16
2023-05-01T21:25:25.591Z,12
2023-05-01T21:30:41.989Z,17
2023-05-01T21:35:58.075Z,18
2023-05-01T21:41:14.452Z,20
2023-05-01T21:46:30.860Z,14
2023-05-01T21:51:47.195Z,16
2023-05-01T21:57:03.577Z,18
2023-05-01T22:02:19.941Z,19
2023-05-01T22:07:36.339Z,25
2023-05-01T22:12:52.721Z,24
2023-05-01T22:18:09.124Z,23
2023-05-01T22:23:25.482Z,24
2023-05-01T22:28:41.882Z,18
2023-05-01T22:33:58.270Z,22
2023-05-01T22:39:14.668Z,20
2023-05-01T22:44:31.022Z,20
2023-05-01T22:49:47.421Z,20
2023-05-01T22:55:03.799Z,20
2023-05-01T23:00:20.196Z,20
2023-05-01T23:05:36.559Z,22
2023-05-01T23:10:53.238Z,18
2023-05-01T23:16:09.374Z,16
2023-05-01T23:21:25.697Z,22
2023-05-01T23:26:42.098Z,18
2023-05-01T23:31:58.562Z,21
2023-05-01T23:37:14.867Z,21
2023-05-01T23:42:31.242Z,19
2023-05-01T23:47:47.705Z,20
2023-05-01T23:53:03.998Z,22
2023-05-01T23:58:20.396Z,22
